createdAt,value
2023-04-15T00:01:07.300Z,6.74
2023-04-15T00:03:35.204Z,6.60
2023-04-15T00:06:02.616Z,6.69
2023-04-15T00:08:30.412Z,6.69
2023-04-15T00:10:59.705Z,6.80
2023-04-15T00:13:26.639Z,6.82
2023-04-15T00:15:53.645Z,6.93
2023-04-15T00:18:20.591Z,6.95
2023-04-15T00:20:47.980Z,7.05
2023-04-15T00:23:15.362Z,7.11
2023-04-15T00:25:42.516Z,7.03
2023-04-15T00:28:09.728Z,7.03
2023-04-15T00:30:36.869Z,7.06
2023-04-15T00:33:04.178Z,7.05
2023-04-15T00:35:33.942Z,7.00
2023-04-15T00:38:00.931Z,6.90
2023-04-15T00:40:28.108Z,6.89
2023-04-15T00:42:55.344Z,6.93
2023-04-15T00:45:22.386Z,6.94
2023-04-15T00:47:49.913Z,7.00
2023-04-15T00:50:16.976Z,7.06
2023-04-15T00:52:44.340Z,7.18
2023-04-15T00:55:11.517Z,7.16
2023-04-15T01:59:45.227Z,6.43
2023-04-15T02:02:12.543Z,6.45
2023-04-15T02:04:39.690Z,6.44
2023-04-15T03:07:43.913Z,5.25
2023-04-15T03:10:11.753Z,5.30
2023-04-15T03:12:38.754Z,5.32
2023-04-15T05:18:38.200Z,5.89
2023-04-15T05:21:05.737Z,5.97
2023-04-15T05:23:33.213Z,6.09
2023-04-15T05:26:00.106Z,6.20
2023-04-15T05:57:41.011Z,7.20
2023-04-15T06:00:08.500Z,7.38
2023-04-15T06:02:38.251Z,7.45
2023-04-15T06:05:10.200Z,7.59
2023-04-15T06:07:38.264Z,7.74
2023-04-15T06:10:06.247Z,7.84
2023-04-15T06:39:48.646Z,8.65
2023-04-15T06:42:15.820Z,8.86
2023-04-15T06:44:42.775Z,9.02
2023-04-15T06:47:09.690Z,9.18
2023-04-15T06:49:36.618Z,9.27
2023-04-15T06:52:05.310Z,9.32
2023-04-15T06:54:32.322Z,9.37
2023-04-15T06:56:59.338Z,9.46
2023-04-15T06:59:27.543Z,9.68
2023-04-15T07:01:54.665Z,9.85
2023-04-15T07:04:21.763Z,9.98
2023-04-15T07:06:48.895Z,10.06
2023-04-15T07:09:15.853Z,10.27
2023-04-15T07:11:44.086Z,10.34
2023-04-15T07:14:11.316Z,10.50
2023-04-15T07:16:38.379Z,10.68
2023-04-15T07:19:05.448Z,10.77
2023-04-15T07:21:34.969Z,10.82
2023-04-15T07:24:02.005Z,10.84
2023-04-15T07:26:30.334Z,10.91
2023-04-15T07:28:57.292Z,10.88
2023-04-15T07:31:24.656Z,11.09
2023-04-15T07:33:51.730Z,11.26
2023-04-15T07:36:19.032Z,11.40
2023-04-15T07:38:45.959Z,11.43
2023-04-15T07:41:13.030Z,11.45
2023-04-15T07:43:40.012Z,11.68
2023-04-15T07:46:07.185Z,11.88
2023-04-15T07:48:35.532Z,12.02
2023-04-15T07:51:03.744Z,12.13
2023-04-15T07:53:30.864Z,12.24
2023-04-15T07:55:57.977Z,12.43
2023-04-15T07:58:24.890Z,12.67
2023-04-15T08:00:52.059Z,12.84
2023-04-15T08:03:19.198Z,13.08
2023-04-15T08:05:47.495Z,13.22
2023-04-15T08:08:14.690Z,13.09
2023-04-15T08:10:41.617Z,13.05
2023-04-15T08:13:08.670Z,13.14
2023-04-15T08:15:35.672Z,12.97
2023-04-15T08:18:02.683Z,13.16
2023-04-15T08:20:30.169Z,13.29
2023-04-15T08:22:57.416Z,13.49
2023-04-15T08:25:24.416Z,13.55
2023-04-15T08:27:51.823Z,13.49
2023-04-15T08:30:19.636Z,13.35
2023-04-15T08:32:47.753Z,13.31
2023-04-15T08:35:14.800Z,13.38
2023-04-15T08:37:41.932Z,13.37
2023-04-15T08:40:10.123Z,13.35
2023-04-15T08:42:49.172Z,13.44
2023-04-15T08:45:18.394Z,13.52
2023-04-15T08:47:45.983Z,13.74
2023-04-15T08:50:15.528Z,13.83
2023-04-15T08:52:42.615Z,13.99
2023-04-15T08:55:10.867Z,14.05
2023-04-15T08:57:38.453Z,13.85
2023-04-15T09:00:06.919Z,13.58
2023-04-15T09:02:34.140Z,13.74
2023-04-15T09:05:01.434Z,13.87
2023-04-15T09:07:28.318Z,13.94
2023-04-15T09:09:55.322Z,13.94
2023-04-15T09:12:23.150Z,14.24
2023-04-15T09:14:51.521Z,14.51
2023-04-15T09:17:20.842Z,14.88
2023-04-15T09:19:48.344Z,15.07
2023-04-15T09:22:15.825Z,14.87
2023-04-15T09:24:43.635Z,14.83
2023-04-15T09:27:11.365Z,15.12
2023-04-15T09:29:38.489Z,15.17
2023-04-15T09:32:15.880Z,15.03
2023-04-15T09:34:43.344Z,14.96
2023-04-15T09:37:11.764Z,15.20
2023-04-15T09:39:52.962Z,15.30
2023-04-15T09:42:27.570Z,15.33
2023-04-15T09:44:54.694Z,15.50
2023-04-15T09:47:30.090Z,15.40
2023-04-15T09:50:01.304Z,15.32
2023-04-15T09:52:29.134Z,15.64
2023-04-15T09:54:58.670Z,15.33
2023-04-15T09:57:25.931Z,14.99
2023-04-15T09:59:52.984Z,15.04
2023-04-15T10:02:21.720Z,14.93
2023-04-15T10:04:50.120Z,14.99
2023-04-15T10:07:20.839Z,15.26
2023-04-15T10:09:51.989Z,15.29
2023-04-15T10:12:20.767Z,15.32
2023-04-15T10:14:59.734Z,15.70
2023-04-15T10:17:33.896Z,15.53
2023-04-15T10:20:05.604Z,15.31
2023-04-15T10:22:33.510Z,15.04
2023-04-15T10:25:01.448Z,15.07
2023-04-15T10:27:29.248Z,15.40
2023-04-15T10:29:57.433Z,15.80
2023-04-15T10:32:25.937Z,16.05
2023-04-15T10:34:54.718Z,16.06
2023-04-15T10:37:23.550Z,16.03
2023-04-15T10:39:50.994Z,15.67
2023-04-15T10:42:20.352Z,15.78
2023-04-15T10:44:54.264Z,15.90
2023-04-15T10:47:22.297Z,15.99
2023-04-15T10:49:51.845Z,15.85
2023-04-15T10:52:24.455Z,15.88
2023-04-15T10:55:03.606Z,16.09
2023-04-15T10:57:36.712Z,16.31
2023-04-15T11:00:15.146Z,16.36
2023-04-15T11:03:09.092Z,16.48
2023-04-15T11:05:42.230Z,16.48
2023-04-15T11:08:13.240Z,16.17
2023-04-15T11:10:40.115Z,16.15
2023-04-15T11:13:25.441Z,16.30
2023-04-15T11:15:57.086Z,16.14
2023-04-15T11:18:26.782Z,16.14
2023-04-15T11:20:56.808Z,16.54
2023-04-15T11:23:31.288Z,16.51
2023-04-15T11:25:59.720Z,16.09
2023-04-15T11:28:29.143Z,16.18
2023-04-15T11:30:56.935Z,16.17
2023-04-15T11:33:24.959Z,16.28
2023-04-15T11:35:55.512Z,16.49
2023-04-15T11:38:23.087Z,16.19
2023-04-15T11:40:52.435Z,16.33
2023-04-15T11:43:21.864Z,16.44
2023-04-15T11:45:56.624Z,16.42
2023-04-15T11:48:36.027Z,16.12
2023-04-15T11:51:08.165Z,16.32
2023-04-15T11:53:49.549Z,16.44
2023-04-15T11:56:22.189Z,16.33
2023-04-15T11:58:53.040Z,16.37
2023-04-15T12:01:20.307Z,16.47
2023-04-15T12:03:49.918Z,16.56
2023-04-15T12:06:25.639Z,16.44
2023-04-15T12:09:09.909Z,16.51
2023-04-15T12:11:45.283Z,16.79
2023-04-15T12:14:32.327Z,16.64
2023-04-15T12:17:01.821Z,16.95
2023-04-15T12:19:32.904Z,17.02
2023-04-15T12:22:02.676Z,17.14
2023-04-15T12:24:32.900Z,16.78
2023-04-15T12:27:06.839Z,16.62
2023-04-15T12:29:35.916Z,16.56
2023-04-15T12:32:09.959Z,16.74
2023-04-15T12:34:39.792Z,16.84
2023-04-15T12:37:09.953Z,17.00
2023-04-15T12:39:38.743Z,17.11
2023-04-15T12:42:06.407Z,17.07
2023-04-15T12:44:34.252Z,17.10
2023-04-15T12:47:01.657Z,17.27
2023-04-15T12:49:29.251Z,17.14
2023-04-15T12:51:57.766Z,17.08
2023-04-15T12:54:24.635Z,17.08
2023-04-15T12:56:51.722Z,16.86
2023-04-15T12:59:19.043Z,16.93
2023-04-15T13:01:47.688Z,16.65
2023-04-15T13:04:15.690Z,16.58
2023-04-15T13:06:43.430Z,16.84
2023-04-15T13:09:10.605Z,17.08
2023-04-15T13:11:37.483Z,17.23
2023-04-15T13:14:07.567Z,17.26
2023-04-15T13:16:35.384Z,17.18
2023-04-15T13:19:04.027Z,17.36
2023-04-15T13:21:35.585Z,17.48
2023-04-15T13:24:03.488Z,17.44
2023-04-15T13:26:31.676Z,17.23
2023-04-15T13:28:58.836Z,17.25
2023-04-15T13:31:25.802Z,17.24
2023-04-15T13:33:52.831Z,17.51
2023-04-15T13:36:19.883Z,17.66
2023-04-15T13:38:48.036Z,17.97
2023-04-15T13:41:16.838Z,17.84
2023-04-15T13:43:43.825Z,17.91
2023-04-15T13:46:11.438Z,18.28
2023-04-15T13:48:38.525Z,18.53
2023-04-15T13:51:05.510Z,18.60
2023-04-15T13:53:38.398Z,18.33
2023-04-15T13:56:10.820Z,18.28
2023-04-15T13:58:38.643Z,18.52
2023-04-15T14:01:07.322Z,18.42
2023-04-15T14:03:37.913Z,18.23
2023-04-15T14:06:06.223Z,18.46
2023-04-15T14:08:33.538Z,18.32
2023-04-15T14:11:00.784Z,18.26
2023-04-15T14:13:27.748Z,18.52
2023-04-15T14:15:54.751Z,18.44
2023-04-15T14:18:21.808Z,18.39
2023-04-15T14:20:48.788Z,18.06
2023-04-15T14:23:15.769Z,18.22
2023-04-15T14:25:42.750Z,18.47
2023-04-15T14:28:09.691Z,18.61
2023-04-15T14:30:36.783Z,18.70
2023-04-15T14:33:04.179Z,18.82
2023-04-15T14:35:31.437Z,18.81
2023-04-15T14:37:58.631Z,18.96
2023-04-15T14:40:25.597Z,19.20
2023-04-15T14:42:52.519Z,18.78
2023-04-15T14:45:19.477Z,18.32
2023-04-15T14:47:47.250Z,18.29
2023-04-15T14:50:14.312Z,18.41
2023-04-15T14:52:41.373Z,18.62
2023-04-15T14:55:10.648Z,18.73
2023-04-15T14:57:41.651Z,18.87
2023-04-15T15:00:13.166Z,18.72
2023-04-15T15:02:43.780Z,18.32
2023-04-15T15:05:12.457Z,18.09
2023-04-15T15:07:41.234Z,18.22
2023-04-15T15:10:08.650Z,18.27
2023-04-15T15:12:35.700Z,18.20
2023-04-15T15:15:12.344Z,18.05
2023-04-15T15:17:43.122Z,18.06
2023-04-15T15:20:10.749Z,18.18
2023-04-15T15:22:37.691Z,18.23
2023-04-15T15:25:05.167Z,18.27
2023-04-15T15:27:32.320Z,18.14
2023-04-15T15:29:59.693Z,18.40
2023-04-15T15:32:26.853Z,17.87
2023-04-15T15:34:53.851Z,17.60
2023-04-15T15:37:20.948Z,17.28
2023-04-15T15:39:48.750Z,17.33
2023-04-15T15:42:15.673Z,17.44
2023-04-15T15:44:42.632Z,17.15
2023-04-15T15:47:09.676Z,17.27
2023-04-15T15:49:36.655Z,17.39
2023-04-15T15:52:03.607Z,17.59
2023-04-15T15:54:30.517Z,17.82
2023-04-15T15:56:57.784Z,17.63
2023-04-15T15:59:25.763Z,17.53
2023-04-15T16:01:54.661Z,17.49
2023-04-15T16:04:21.769Z,17.93
2023-04-15T16:06:48.874Z,18.21
2023-04-15T16:09:16.232Z,18.19
2023-04-15T16:11:45.107Z,18.27
2023-04-15T16:14:12.203Z,18.36
2023-04-15T16:16:39.689Z,18.26
2023-04-15T16:19:06.837Z,18.57
2023-04-15T16:21:34.727Z,18.74
2023-04-15T16:24:02.440Z,18.34
2023-04-15T16:26:29.416Z,18.08
2023-04-15T16:28:56.493Z,17.71
2023-04-15T16:31:23.533Z,17.03
2023-04-15T16:33:50.555Z,16.91
2023-04-15T16:36:17.471Z,16.70
2023-04-15T16:38:46.692Z,16.73
2023-04-15T16:41:13.578Z,16.72
2023-04-15T16:43:40.769Z,16.86
2023-04-15T16:46:08.481Z,16.76
2023-04-15T16:48:35.420Z,16.66
2023-04-15T16:51:02.314Z,16.53
2023-04-15T16:53:29.214Z,16.37
2023-04-15T16:55:56.261Z,16.25
2023-04-15T16:58:23.370Z,16.12
2023-04-15T17:00:50.961Z,16.03
2023-04-15T17:03:18.081Z,15.97
2023-04-15T17:05:45.222Z,15.84
2023-04-15T17:08:12.255Z,15.69
2023-04-15T17:10:41.757Z,15.64
2023-04-15T17:13:08.874Z,15.42
2023-04-15T17:15:35.965Z,15.43
2023-04-15T17:18:03.054Z,15.34
2023-04-15T17:20:30.598Z,15.28
2023-04-15T17:22:58.086Z,15.24
2023-04-15T17:25:25.032Z,15.22
2023-04-15T17:27:52.201Z,15.14
2023-04-15T17:30:19.646Z,15.23
2023-04-15T17:32:46.727Z,15.21
2023-04-15T17:35:13.960Z,15.03
2023-04-15T17:37:41.183Z,14.93
2023-04-15T17:40:09.039Z,14.82
2023-04-15T17:42:36.123Z,14.75
2023-04-15T17:45:03.204Z,14.77
2023-04-15T17:47:30.123Z,14.79
2023-04-15T17:49:57.054Z,14.78
2023-04-15T17:52:24.116Z,14.73
2023-04-15T17:54:51.125Z,14.74
2023-04-15T17:57:18.121Z,14.72
2023-04-15T17:59:47.657Z,14.70
2023-04-15T18:02:15.726Z,14.74
2023-04-15T18:04:42.818Z,14.71
2023-04-15T18:07:09.855Z,14.66
2023-04-15T18:09:37.055Z,14.60
2023-04-15T18:12:04.906Z,14.54
2023-04-15T18:14:34.700Z,14.52
2023-04-15T18:17:03.252Z,14.52
2023-04-15T18:19:31.060Z,14.50
2023-04-15T18:22:00.544Z,14.48
2023-04-15T18:24:28.111Z,14.46
2023-04-15T18:26:56.704Z,14.45
2023-04-15T18:29:23.611Z,14.55
2023-04-15T18:31:50.728Z,14.64
2023-04-15T18:34:17.831Z,14.50
2023-04-15T18:36:44.762Z,14.46
2023-04-15T18:39:11.812Z,14.45
2023-04-15T18:41:38.792Z,14.48
2023-04-15T18:44:05.716Z,14.50
2023-04-15T18:46:32.717Z,14.47
2023-04-15T18:48:59.664Z,14.45
2023-04-15T18:51:27.578Z,14.43
2023-04-15T18:53:54.515Z,14.44
2023-04-15T18:56:21.592Z,14.38
2023-04-15T18:59:26.873Z,14.41
2023-04-15T19:01:35.738Z,14.21
2023-04-15T19:04:03.560Z,14.08
2023-04-15T19:06:31.147Z,14.06
2023-04-15T19:08:58.793Z,14.03
2023-04-15T19:11:26.324Z,13.88
2023-04-15T19:13:53.375Z,13.89
2023-04-15T19:16:20.823Z,13.77
2023-04-15T19:18:47.834Z,13.65
2023-04-15T19:21:15.734Z,13.60
2023-04-15T19:23:45.532Z,13.53
2023-04-15T19:26:12.613Z,13.39
2023-04-15T19:28:40.008Z,13.41
2023-04-15T19:31:06.988Z,13.35
2023-04-15T19:33:34.446Z,13.28
2023-04-15T19:36:04.274Z,13.29
2023-04-15T19:38:31.723Z,13.31
2023-04-15T19:40:59.165Z,13.33
2023-04-15T19:43:26.208Z,13.29
2023-04-15T19:45:54.962Z,13.25
2023-04-15T19:48:23.399Z,13.26
2023-04-15T19:50:50.495Z,13.13
2023-04-15T19:53:17.511Z,13.05
2023-04-15T19:55:44.495Z,12.98
2023-04-15T19:58:11.635Z,12.97
2023-04-15T20:00:38.940Z,12.93
2023-04-15T20:03:06.313Z,12.87
2023-04-15T20:05:33.472Z,12.82
2023-04-15T20:08:01.630Z,12.81
2023-04-15T20:10:28.580Z,12.80
2023-04-15T20:12:55.672Z,12.82
2023-04-15T20:15:24.078Z,12.88
2023-04-15T20:17:51.427Z,12.87
2023-04-15T20:20:18.930Z,12.82
2023-04-15T20:22:46.014Z,12.74
2023-04-15T20:25:13.041Z,12.68
2023-04-15T20:27:40.065Z,12.64
2023-04-15T20:30:07.688Z,12.59
2023-04-15T20:32:36.298Z,12.58
2023-04-15T20:35:05.337Z,12.57
2023-04-15T20:37:33.830Z,12.55
2023-04-15T20:40:01.557Z,12.46
2023-04-15T20:42:32.234Z,12.40
2023-04-15T20:44:59.210Z,12.42
2023-04-15T20:47:26.500Z,12.41
2023-04-15T20:49:54.179Z,12.42
2023-04-15T20:52:21.150Z,12.43
2023-04-15T20:54:48.159Z,12.35
2023-04-15T20:57:15.215Z,12.39
2023-04-15T20:59:42.151Z,12.32
2023-04-15T21:02:09.172Z,12.32
2023-04-15T21:04:38.163Z,12.27
2023-04-15T21:07:05.236Z,12.27
2023-04-15T21:09:32.288Z,12.26
2023-04-15T21:12:01.666Z,12.20
2023-04-15T21:14:30.382Z,12.24
2023-04-15T21:16:58.475Z,12.25
2023-04-15T21:19:25.641Z,12.28
2023-04-15T21:21:52.644Z,12.28
2023-04-15T21:24:19.654Z,12.26
2023-04-15T21:26:46.720Z,12.28
2023-04-15T21:29:13.956Z,12.32
2023-04-15T21:31:41.325Z,12.30
2023-04-15T21:34:09.466Z,12.37
2023-04-15T21:36:37.456Z,12.34
2023-04-15T21:39:06.013Z,12.25
2023-04-15T21:41:33.076Z,12.17
2023-04-15T21:44:00.372Z,12.15
2023-04-15T21:46:32.920Z,12.17
2023-04-15T21:49:02.114Z,12.05
2023-04-15T21:51:29.277Z,11.96
2023-04-15T21:53:57.614Z,11.94
2023-04-15T21:56:25.632Z,12.02
2023-04-15T21:58:59.502Z,12.04
2023-04-15T22:01:26.960Z,12.03
2023-04-15T22:03:54.250Z,12.07
2023-04-15T22:06:21.722Z,12.03
2023-04-15T22:08:56.672Z,12.04
2023-04-15T22:11:28.694Z,12.00
2023-04-15T22:13:59.641Z,11.92
2023-04-15T22:16:27.097Z,11.94
2023-04-15T22:18:55.012Z,11.89
2023-04-15T22:21:22.047Z,11.85
2023-04-15T22:23:49.921Z,11.86
2023-04-15T22:26:18.181Z,11.81
2023-04-15T22:28:45.563Z,11.79
2023-04-15T22:31:13.890Z,11.76
2023-04-15T22:33:40.908Z,11.79
2023-04-15T22:36:08.008Z,11.72
2023-04-15T22:38:34.955Z,11.75
2023-04-15T22:41:01.925Z,11.68
2023-04-15T22:43:29.070Z,11.64
2023-04-15T22:45:56.909Z,11.66
